sensor_id;sensor_type;location;lat;lon;timestamp;pressure;altitude;pressure_sealevel;temperature;humidity
63500;BME280;49654;51.142;14.924;2022-12-08T00:01:30;98575.56;;;3.40;79.93
63500;BME280;49654;51.142;14.924;2022-12-08T00:03:58;98583.69;;;3.36;80.26
63500;BME280;49654;51.142;14.924;2022-12-08T00:06:29;98567.66;;;3.24;80.02
63500;BME280;49654;51.142;14.924;2022-12-08T00:09:16;98578.94;;;3.41;79.77
63500;BME280;49654;51.142;14.924;2022-12-08T00:11:54;98588.22;;;3.42;80.07
63500;BME280;49654;51.142;14.924;2022-12-08T00:14:24;98588.34;;;3.50;79.56
63500;BME280;49654;51.142;14.924;2022-12-08T00:16:51;98581.00;;;3.55;79.01
63500;BME280;49654;51.142;14.924;2022-12-08T00:19:19;98576.63;;;3.65;78.83
63500;BME280;49654;51.142;14.924;2022-12-08T00:21:46;98559.44;;;3.48;79.01
63500;BME280;49654;51.142;14.924;2022-12-08T00:24:13;98578.28;;;3.39;79.71
63500;BME280;49654;51.142;14.924;2022-12-08T00:26:40;98581.44;;;3.23;80.38
63500;BME280;49654;51.142;14.924;2022-12-08T00:29:09;98568.00;;;3.11;80.36
63500;BME280;49654;51.142;14.924;2022-12-08T00:31:36;98585.41;;;3.17;80.69
63500;BME280;49654;51.142;14.924;2022-12-08T00:34:03;98571.47;;;3.20;81.14
63500;BME280;49654;51.142;14.924;2022-12-08T00:36:30;98577.69;;;3.17;81.13
63500;BME280;49654;51.142;14.924;2022-12-08T00:38:58;98576.63;;;3.10;81.32
63500;BME280;49654;51.142;14.924;2022-12-08T00:41:26;98582.16;;;3.15;81.42
63500;BME280;49654;51.142;14.924;2022-12-08T00:44:14;98567.59;;;3.06;81.46
63500;BME280;49654;51.142;14.924;2022-12-08T00:46:41;98572.75;;;3.06;81.73
63500;BME280;49654;51.142;14.924;2022-12-08T00:49:08;98563.56;;;3.04;81.30
63500;BME280;49654;51.142;14.924;2022-12-08T00:51:36;98573.06;;;3.21;80.87
63500;BME280;49654;51.142;14.924;2022-12-08T00:54:03;98568.56;;;3.33;80.42
63500;BME280;49654;51.142;14.924;2022-12-08T00:56:31;98538.63;;;3.23;79.16
63500;BME280;49654;51.142;14.924;2022-12-08T00:58:58;98563.78;;;3.47;79.21
63500;BME280;49654;51.142;14.924;2022-12-08T01:01:27;98565.59;;;3.55;78.87
63500;BME280;49654;51.142;14.924;2022-12-08T01:03:54;98562.19;;;3.64;78.75
63500;BME280;49654;51.142;14.924;2022-12-08T01:06:21;98548.47;;;3.56;78.23
63500;BME280;49654;51.142;14.924;2022-12-08T01:08:48;98557.41;;;3.69;78.35
63500;BME280;49654;51.142;14.924;2022-12-08T01:11:17;98561.31;;;3.73;77.89
63500;BME280;49654;51.142;14.924;2022-12-08T01:13:45;98530.34;;;3.57;77.20
63500;BME280;49654;51.142;14.924;2022-12-08T01:16:18;98531.72;;;3.51;77.77
63500;BME280;49654;51.142;14.924;2022-12-08T01:18:47;98570.38;;;3.68;77.83
63500;BME280;49654;51.142;14.924;2022-12-08T01:21:14;98572.94;;;3.68;78.25
63500;BME280;49654;51.142;14.924;2022-12-08T01:23:41;98475.72;;;3.19;77.55
63500;BME280;49654;51.142;14.924;2022-12-08T01:26:10;98578.69;;;3.80;77.93
63500;BME280;49654;51.142;14.924;2022-12-08T01:28:38;98575.84;;;3.65;77.96
63500;BME280;49654;51.142;14.924;2022-12-08T01:31:10;98522.56;;;3.49;78.13
63500;BME280;49654;51.142;14.924;2022-12-08T01:33:38;98549.72;;;3.69;78.50
63500;BME280;49654;51.142;14.924;2022-12-08T01:36:07;98568.28;;;3.81;77.69
63500;BME280;49654;51.142;14.924;2022-12-08T01:38:34;98561.53;;;3.80;78.39
63500;BME280;49654;51.142;14.924;2022-12-08T01:41:01;98566.44;;;3.73;78.08
63500;BME280;49654;51.142;14.924;2022-12-08T01:43:54;98564.53;;;3.75;77.87
63500;BME280;49654;51.142;14.924;2022-12-08T01:46:22;98548.41;;;3.65;78.61
63500;BME280;49654;51.142;14.924;2022-12-08T01:48:50;98528.31;;;3.33;78.77
63500;BME280;49654;51.142;14.924;2022-12-08T01:51:20;98557.91;;;3.55;79.17
63500;BME280;49654;51.142;14.924;2022-12-08T01:53:48;98539.69;;;3.31;79.24
63500;BME280;49654;51.142;14.924;2022-12-08T01:56:19;98548.03;;;3.33;80.45
63500;BME280;49654;51.142;14.924;2022-12-08T01:58:51;98472.72;;;2.79;80.06
63500;BME280;49654;51.142;14.924;2022-12-08T02:01:20;98544.03;;;3.48;80.61
63500;BME280;49654;51.142;14.924;2022-12-08T02:03:51;98546.25;;;3.61;79.45
63500;BME280;49654;51.142;14.924;2022-12-08T02:06:21;98478.66;;;3.24;79.17
63500;BME280;49654;51.142;14.924;2022-12-08T02:08:48;98536.50;;;3.64;78.63
63500;BME280;49654;51.142;14.924;2022-12-08T02:11:16;98523.13;;;3.43;78.75
63500;BME280;49654;51.142;14.924;2022-12-08T02:13:45;98543.81;;;3.59;79.03
63500;BME280;49654;51.142;14.924;2022-12-08T02:16:24;98521.06;;;3.46;78.51
63500;BME280;49654;51.142;14.924;2022-12-08T02:19:01;98451.28;;;2.97;78.78
63500;BME280;49654;51.142;14.924;2022-12-08T02:21:38;98475.22;;;2.88;79.39
63500;BME280;49654;51.142;14.924;2022-12-08T02:24:11;98523.34;;;3.32;79.51
63500;BME280;49654;51.142;14.924;2022-12-08T02:29:52;98502.84;;;2.94;79.73
63500;BME280;49654;51.142;14.924;2022-12-08T02:35:38;98523.72;;;3.09;79.82
63500;BME280;49654;51.142;14.924;2022-12-08T02:38:17;98521.00;;;3.11;80.40
63500;BME280;49654;51.142;14.924;2022-12-08T02:40:52;98520.72;;;3.14;80.19
63500;BME280;49654;51.142;14.924;2022-12-08T02:43:26;98519.78;;;3.15;79.46
63500;BME280;49654;51.142;14.924;2022-12-08T02:45:59;98516.69;;;3.11;79.43
63500;BME280;49654;51.142;14.924;2022-12-08T02:48:27;98514.06;;;3.21;79.38
63500;BME280;49654;51.142;14.924;2022-12-08T02:50:55;98529.38;;;3.13;79.21
63500;BME280;49654;51.142;14.924;2022-12-08T02:53:22;98444.00;;;2.65;79.86
63500;BME280;49654;51.142;14.924;2022-12-08T02:55:55;98518.25;;;3.22;79.37
63500;BME280;49654;51.142;14.924;2022-12-08T02:58:36;98511.47;;;3.31;79.05
63500;BME280;49654;51.142;14.924;2022-12-08T03:01:18;98518.81;;;3.16;79.38
63500;BME280;49654;51.142;14.924;2022-12-08T03:03:58;98503.56;;;3.14;79.03
63500;BME280;49654;51.142;14.924;2022-12-08T03:06:34;98489.78;;;3.15;78.78
63500;BME280;49654;51.142;14.924;2022-12-08T03:09:11;98520.84;;;3.40;78.70
63500;BME280;49654;51.142;14.924;2022-12-08T03:11:45;98507.41;;;3.28;78.56
63500;BME280;49654;51.142;14.924;2022-12-08T03:14:16;98474.22;;;2.99;78.88
63500;BME280;49654;51.142;14.924;2022-12-08T03:16:47;98511.31;;;3.32;79.41
63500;BME280;49654;51.142;14.924;2022-12-08T03:19:18;98466.03;;;2.86;79.24
63500;BME280;49654;51.142;14.924;2022-12-08T03:21:50;98485.63;;;3.14;78.90
63500;BME280;49654;51.142;14.924;2022-12-08T03:24:21;98506.91;;;3.42;78.59
63500;BME280;49654;51.142;14.924;2022-12-08T03:26:51;98502.97;;;3.48;78.43
63500;BME280;49654;51.142;14.924;2022-12-08T03:29:21;98422.13;;;2.98;78.21
63500;BME280;49654;51.142;14.924;2022-12-08T03:31:52;98488.00;;;3.25;78.26
63500;BME280;49654;51.142;14.924;2022-12-08T03:34:21;98494.31;;;3.49;78.25
63500;BME280;49654;51.142;14.924;2022-12-08T03:36:50;98429.69;;;3.00;78.46
63500;BME280;49654;51.142;14.924;2022-12-08T03:39:18;98465.63;;;3.18;78.74
63500;BME280;49654;51.142;14.924;2022-12-08T03:41:45;98491.06;;;3.29;79.33
63500;BME280;49654;51.142;14.924;2022-12-08T03:44:13;98477.34;;;3.20;79.12
63500;BME280;49654;51.142;14.924;2022-12-08T03:46:40;98486.16;;;3.36;79.11
63500;BME280;49654;51.142;14.924;2022-12-08T03:49:07;98471.13;;;3.41;78.95
63500;BME280;49654;51.142;14.924;2022-12-08T03:51:34;98484.28;;;3.56;78.49
63500;BME280;49654;51.142;14.924;2022-12-08T03:54:03;98488.06;;;3.34;78.59
63500;BME280;49654;51.142;14.924;2022-12-08T03:56:31;98437.94;;;2.94;79.79
63500;BME280;49654;51.142;14.924;2022-12-08T03:58:59;98391.41;;;2.89;79.93
63500;BME280;49654;51.142;14.924;2022-12-08T04:01:27;98472.97;;;3.48;79.45
63500;BME280;49654;51.142;14.924;2022-12-08T04:03:54;98472.09;;;3.40;79.10
63500;BME280;49654;51.142;14.924;2022-12-08T04:06:21;98475.97;;;3.62;78.65
63500;BME280;49654;51.142;14.924;2022-12-08T04:08:49;98479.50;;;3.61;78.26
63500;BME280;49654;51.142;14.924;2022-12-08T04:11:18;98453.53;;;3.46;78.58
63500;BME280;49654;51.142;14.924;2022-12-08T04:13:46;98467.47;;;3.43;78.61
63500;BME280;49654;51.142;14.924;2022-12-08T04:16:14;98459.81;;;3.34;78.93
63500;BME280;49654;51.142;14.924;2022-12-08T04:18:42;98468.28;;;3.44;78.87
63500;BME280;49654;51.142;14.924;2022-12-08T04:21:09;98459.91;;;3.42;78.65
63500;BME280;49654;51.142;14.924;2022-12-08T04:23:37;98457.75;;;3.19;78.74
63500;BME280;49654;51.142;14.924;2022-12-08T04:26:04;98398.75;;;2.74;79.31
63500;BME280;49654;51.142;14.924;2022-12-08T04:28:33;98454.16;;;3.12;79.42
63500;BME280;49654;51.142;14.924;2022-12-08T04:31:00;98446.97;;;2.98;79.92
63500;BME280;49654;51.142;14.924;2022-12-08T04:33:27;98448.28;;;3.02;79.82
63500;BME280;49654;51.142;14.924;2022-12-08T04:35:54;98450.34;;;3.16;79.38
63500;BME280;49654;51.142;14.924;2022-12-08T04:38:21;98434.03;;;2.90;79.59
63500;BME280;49654;51.142;14.924;2022-12-08T04:40:48;98449.84;;;3.13;79.91
63500;BME280;49654;51.142;14.924;2022-12-08T04:43:15;98440.09;;;3.16;79.88
63500;BME280;49654;51.142;14.924;2022-12-08T04:45:44;98437.25;;;3.19;79.14
63500;BME280;49654;51.142;14.924;2022-12-08T04:48:12;98444.28;;;3.17;78.87
63500;BME280;49654;51.142;14.924;2022-12-08T04:50:40;98453.22;;;3.13;79.27
63500;BME280;49654;51.142;14.924;2022-12-08T04:53:08;98448.75;;;3.33;79.10
63500;BME280;49654;51.142;14.924;2022-12-08T04:55:37;98447.06;;;3.42;78.56
63500;BME280;49654;51.142;14.924;2022-12-08T04:58:05;98439.16;;;3.35;78.17
63500;BME280;49654;51.142;14.924;2022-12-08T05:00:32;98434.56;;;3.39;78.72
63500;BME280;49654;51.142;14.924;2022-12-08T05:03:00;98420.69;;;3.32;78.50
63500;BME280;49654;51.142;14.924;2022-12-08T05:05:27;98412.25;;;3.21;78.52
63500;BME280;49654;51.142;14.924;2022-12-08T05:07:54;98441.94;;;3.42;78.70
63500;BME280;49654;51.142;14.924;2022-12-08T05:10:21;98433.00;;;3.46;78.20
63500;BME280;49654;51.142;14.924;2022-12-08T05:12:48;98444.31;;;3.35;78.14
63500;BME280;49654;51.142;14.924;2022-12-08T05:15:16;98298.41;;;2.51;78.35
63500;BME280;49654;51.142;14.924;2022-12-08T05:17:43;98429.53;;;3.19;79.05
63500;BME280;49654;51.142;14.924;2022-12-08T05:20:12;98413.97;;;3.03;79.09
63500;BME280;49654;51.142;14.924;2022-12-08T05:22:39;98422.19;;;3.07;79.51
63500;BME280;49654;51.142;14.924;2022-12-08T05:25:06;98430.47;;;3.00;80.22
63500;BME280;49654;51.142;14.924;2022-12-08T05:27:34;98413.25;;;2.93;80.07
63500;BME280;49654;51.142;14.924;2022-12-08T05:30:01;98424.84;;;3.15;79.97
63500;BME280;49654;51.142;14.924;2022-12-08T05:32:28;98430.72;;;3.25;79.92
63500;BME280;49654;51.142;14.924;2022-12-08T05:34:55;98384.66;;;2.88;79.84
63500;BME280;49654;51.142;14.924;2022-12-08T05:37:23;98350.22;;;2.45;79.89
63500;BME280;49654;51.142;14.924;2022-12-08T05:39:50;98424.84;;;2.97;80.55
63500;BME280;49654;51.142;14.924;2022-12-08T05:42:17;98432.03;;;3.11;79.94
63500;BME280;49654;51.142;14.924;2022-12-08T05:44:44;98424.69;;;3.16;79.50
63500;BME280;49654;51.142;14.924;2022-12-08T05:47:12;98416.97;;;2.98;80.06
63500;BME280;49654;51.142;14.924;2022-12-08T05:49:39;98427.19;;;3.08;79.92
63500;BME280;49654;51.142;14.924;2022-12-08T05:52:06;98431.00;;;3.04;79.67
63500;BME280;49654;51.142;14.924;2022-12-08T05:54:34;98428.13;;;3.07;80.90
63500;BME280;49654;51.142;14.924;2022-12-08T05:57:02;98427.75;;;3.02;80.40
63500;BME280;49654;51.142;14.924;2022-12-08T05:59:29;98415.91;;;3.01;80.23
63500;BME280;49654;51.142;14.924;2022-12-08T06:01:56;98419.56;;;3.16;80.53
63500;BME280;49654;51.142;14.924;2022-12-08T06:04:23;98426.25;;;3.09;80.22
63500;BME280;49654;51.142;14.924;2022-12-08T06:06:50;98411.84;;;2.98;80.21
63500;BME280;49654;51.142;14.924;2022-12-08T06:09:17;98399.41;;;3.04;79.89
63500;BME280;49654;51.142;14.924;2022-12-08T06:11:45;98317.53;;;2.29;80.61
63500;BME280;49654;51.142;14.924;2022-12-08T06:14:12;98421.31;;;2.98;80.50
63500;BME280;49654;51.142;14.924;2022-12-08T06:16:40;98425.34;;;3.00;80.52
63500;BME280;49654;51.142;14.924;2022-12-08T06:19:07;98421.03;;;3.01;80.24
63500;BME280;49654;51.142;14.924;2022-12-08T06:21:34;98427.25;;;2.98;80.18
63500;BME280;49654;51.142;14.924;2022-12-08T06:24:01;98407.53;;;2.99;80.12
63500;BME280;49654;51.142;14.924;2022-12-08T06:26:28;98415.63;;;3.04;79.88
63500;BME280;49654;51.142;14.924;2022-12-08T06:28:56;98430.94;;;3.14;80.17
63500;BME280;49654;51.142;14.924;2022-12-08T06:31:26;98424.25;;;3.03;79.71
63500;BME280;49654;51.142;14.924;2022-12-08T06:33:53;98429.81;;;3.16;79.61
63500;BME280;49654;51.142;14.924;2022-12-08T06:36:23;98420.53;;;3.15;79.66
63500;BME280;49654;51.142;14.924;2022-12-08T06:38:51;98426.97;;;3.19;79.50
63500;BME280;49654;51.142;14.924;2022-12-08T06:41:18;98424.13;;;3.22;79.07
63500;BME280;49654;51.142;14.924;2022-12-08T06:43:45;98426.25;;;3.27;79.13
63500;BME280;49654;51.142;14.924;2022-12-08T06:46:15;98420.69;;;3.14;79.59
63500;BME280;49654;51.142;14.924;2022-12-08T06:48:43;98431.13;;;3.03;79.56
63500;BME280;49654;51.142;14.924;2022-12-08T06:51:12;98426.63;;;3.14;79.94
63500;BME280;49654;51.142;14.924;2022-12-08T06:53:40;98435.91;;;3.15;80.00
63500;BME280;49654;51.142;14.924;2022-12-08T06:56:08;98417.00;;;3.16;79.21
63500;BME280;49654;51.142;14.924;2022-12-08T06:58:35;98404.16;;;3.16;78.80
63500;BME280;49654;51.142;14.924;2022-12-08T07:01:04;98434.25;;;3.24;79.22
63500;BME280;49654;51.142;14.924;2022-12-08T07:03:32;98445.03;;;3.28;78.80
63500;BME280;49654;51.142;14.924;2022-12-08T07:06:00;98441.50;;;3.29;78.90
63500;BME280;49654;51.142;14.924;2022-12-08T07:08:27;98441.00;;;3.43;78.98
63500;BME280;49654;51.142;14.924;2022-12-08T07:10:54;98418.41;;;3.11;78.86
63500;BME280;49654;51.142;14.924;2022-12-08T07:13:21;98440.09;;;3.16;78.98
63500;BME280;49654;51.142;14.924;2022-12-08T07:15:48;98435.56;;;3.28;79.04
63500;BME280;49654;51.142;14.924;2022-12-08T07:18:15;98442.63;;;3.44;78.91
63500;BME280;49654;51.142;14.924;2022-12-08T07:20:43;98448.56;;;3.44;77.99
63500;BME280;49654;51.142;14.924;2022-12-08T07:23:10;98423.69;;;3.45;78.22
63500;BME280;49654;51.142;14.924;2022-12-08T07:25:37;98432.91;;;3.38;78.01
63500;BME280;49654;51.142;14.924;2022-12-08T07:28:08;98313.34;;;2.56;77.87
63500;BME280;49654;51.142;14.924;2022-12-08T07:30:36;98440.94;;;3.35;77.95
63500;BME280;49654;51.142;14.924;2022-12-08T07:33:03;98443.56;;;3.43;78.11
63500;BME280;49654;51.142;14.924;2022-12-08T07:35:31;98424.31;;;3.11;78.22
63500;BME280;49654;51.142;14.924;2022-12-08T07:37:59;98402.03;;;2.94;78.40
63500;BME280;49654;51.142;14.924;2022-12-08T07:40:27;98429.53;;;3.19;78.46
63500;BME280;49654;51.142;14.924;2022-12-08T07:42:54;98360.19;;;2.75;78.44
63500;BME280;49654;51.142;14.924;2022-12-08T07:45:21;98434.69;;;3.19;78.56
63500;BME280;49654;51.142;14.924;2022-12-08T07:47:49;98426.16;;;3.01;78.49
63500;BME280;49654;51.142;14.924;2022-12-08T07:50:16;98423.06;;;2.97;79.40
63500;BME280;49654;51.142;14.924;2022-12-08T07:52:43;98434.50;;;3.03;78.94
63500;BME280;49654;51.142;14.924;2022-12-08T07:55:11;98425.56;;;3.07;79.59
63500;BME280;49654;51.142;14.924;2022-12-08T07:57:38;98414.13;;;3.01;79.15
63500;BME280;49654;51.142;14.924;2022-12-08T08:00:06;98434.69;;;3.19;78.96
63500;BME280;49654;51.142;14.924;2022-12-08T08:02:34;98432.47;;;3.24;78.63
63500;BME280;49654;51.142;14.924;2022-12-08T08:05:01;98439.72;;;3.29;78.57
63500;BME280;49654;51.142;14.924;2022-12-08T08:07:29;98423.84;;;3.25;78.35
63500;BME280;49654;51.142;14.924;2022-12-08T08:09:56;98446.25;;;3.59;78.20
63500;BME280;49654;51.142;14.924;2022-12-08T08:12:25;98447.66;;;3.54;77.40
63500;BME280;49654;51.142;14.924;2022-12-08T08:14:52;98446.63;;;3.46;77.69
63500;BME280;49654;51.142;14.924;2022-12-08T08:17:19;98451.41;;;3.59;78.00
63500;BME280;49654;51.142;14.924;2022-12-08T08:19:46;98443.72;;;3.77;76.83
63500;BME280;49654;51.142;14.924;2022-12-08T08:22:13;98445.00;;;3.81;77.12
63500;BME280;49654;51.142;14.924;2022-12-08T08:24:40;98454.78;;;3.78;76.96
63500;BME280;49654;51.142;14.924;2022-12-08T08:27:07;98418.59;;;3.71;76.65
63500;BME280;49654;51.142;14.924;2022-12-08T08:29:35;98406.34;;;3.83;76.57
63500;BME280;49654;51.142;14.924;2022-12-08T08:32:02;98400.19;;;3.75;75.98
63500;BME280;49654;51.142;14.924;2022-12-08T08:34:29;98447.28;;;4.10;76.61
63500;BME280;49654;51.142;14.924;2022-12-08T08:36:56;98449.56;;;3.87;76.13
63500;BME280;49654;51.142;14.924;2022-12-08T08:39:23;98448.59;;;3.88;76.67
63500;BME280;49654;51.142;14.924;2022-12-08T08:41:51;98432.66;;;4.03;76.10
63500;BME280;49654;51.142;14.924;2022-12-08T08:44:18;98445.97;;;4.06;76.02
63500;BME280;49654;51.142;14.924;2022-12-08T08:46:46;98446.81;;;3.89;76.33
63500;BME280;49654;51.142;14.924;2022-12-08T08:49:13;98455.91;;;4.01;76.74
63500;BME280;49654;51.142;14.924;2022-12-08T08:51:40;98414.25;;;3.89;76.03
63500;BME280;49654;51.142;14.924;2022-12-08T08:54:08;98448.25;;;4.09;76.11
63500;BME280;49654;51.142;14.924;2022-12-08T08:56:35;98448.97;;;4.19;76.02
63500;BME280;49654;51.142;14.924;2022-12-08T08:59:02;98303.31;;;3.16;76.22
63500;BME280;49654;51.142;14.924;2022-12-08T09:01:29;98445.44;;;3.94;76.77
63500;BME280;49654;51.142;14.924;2022-12-08T09:03:58;98434.00;;;3.71;77.33
63500;BME280;49654;51.142;14.924;2022-12-08T09:06:26;98453.22;;;3.85;78.22
63500;BME280;49654;51.142;14.924;2022-12-08T09:08:53;98447.50;;;3.91;77.80
63500;BME280;49654;51.142;14.924;2022-12-08T09:11:20;98441.34;;;3.84;77.97
63500;BME280;49654;51.142;14.924;2022-12-08T09:13:49;98444.03;;;4.00;77.62
63500;BME280;49654;51.142;14.924;2022-12-08T09:16:17;98438.53;;;3.95;78.18
63500;BME280;49654;51.142;14.924;2022-12-08T09:18:44;98340.47;;;3.47;77.59
63500;BME280;49654;51.142;14.924;2022-12-08T09:21:15;98441.28;;;4.01;77.39
63500;BME280;49654;51.142;14.924;2022-12-08T09:23:47;98422.88;;;4.06;76.96
63500;BME280;49654;51.142;14.924;2022-12-08T09:26:14;98438.34;;;4.14;76.34
63500;BME280;49654;51.142;14.924;2022-12-08T09:28:42;98457.50;;;4.46;76.25
63500;BME280;49654;51.142;14.924;2022-12-08T09:31:11;98449.34;;;4.59;75.83
63500;BME280;49654;51.142;14.924;2022-12-08T09:33:39;98445.16;;;4.58;75.31
63500;BME280;49654;51.142;14.924;2022-12-08T09:36:07;98443.72;;;4.55;76.00
63500;BME280;49654;51.142;14.924;2022-12-08T09:38:36;98441.13;;;4.55;75.73
63500;BME280;49654;51.142;14.924;2022-12-08T09:41:13;98423.16;;;4.55;75.33
63500;BME280;49654;51.142;14.924;2022-12-08T09:43:49;98380.94;;;4.32;74.90
63500;BME280;49654;51.142;14.924;2022-12-08T09:46:18;98423.78;;;4.57;74.87
63500;BME280;49654;51.142;14.924;2022-12-08T09:48:49;98419.53;;;4.40;75.66
63500;BME280;49654;51.142;14.924;2022-12-08T09:51:22;98437.22;;;4.43;76.02
63500;BME280;49654;51.142;14.924;2022-12-08T09:53:53;98429.81;;;4.40;75.47
63500;BME280;49654;51.142;14.924;2022-12-08T09:56:22;98420.06;;;4.51;75.91
63500;BME280;49654;51.142;14.924;2022-12-08T09:58:52;98411.75;;;4.32;75.77
63500;BME280;49654;51.142;14.924;2022-12-08T10:01:25;98383.44;;;4.23;76.43
63500;BME280;49654;51.142;14.924;2022-12-08T10:03:53;98418.47;;;4.50;76.32
63500;BME280;49654;51.142;14.924;2022-12-08T10:06:29;98422.44;;;4.45;75.97
63500;BME280;49654;51.142;14.924;2022-12-08T10:09:04;98424.31;;;4.69;75.61
63500;BME280;49654;51.142;14.924;2022-12-08T10:11:39;98419.94;;;4.61;75.49
63500;BME280;49654;51.142;14.924;2022-12-08T10:14:17;98415.47;;;4.63;74.26
63500;BME280;49654;51.142;14.924;2022-12-08T10:16:48;98423.06;;;4.39;75.28
63500;BME280;49654;51.142;14.924;2022-12-08T10:19:18;98404.31;;;4.46;75.40
63500;BME280;49654;51.142;14.924;2022-12-08T10:21:47;98412.22;;;4.61;75.81
63500;BME280;49654;51.142;14.924;2022-12-08T10:24:21;98413.97;;;4.52;75.17
63500;BME280;49654;51.142;14.924;2022-12-08T10:26:49;98409.53;;;4.63;75.02
63500;BME280;49654;51.142;14.924;2022-12-08T10:29:16;98417.41;;;4.35;75.38
63500;BME280;49654;51.142;14.924;2022-12-08T10:31:43;98410.28;;;4.21;76.02
63500;BME280;49654;51.142;14.924;2022-12-08T10:34:17;98423.25;;;4.19;76.35
63500;BME280;49654;51.142;14.924;2022-12-08T10:36:49;98419.19;;;4.09;76.76
63500;BME280;49654;51.142;14.924;2022-12-08T10:39:36;98416.16;;;4.13;76.61
63500;BME280;49654;51.142;14.924;2022-12-08T10:42:16;98417.41;;;4.35;75.95
63500;BME280;49654;51.142;14.924;2022-12-08T10:44:53;98366.50;;;4.39;74.85
63500;BME280;49654;51.142;14.924;2022-12-08T10:47:22;98406.13;;;4.62;74.87
63500;BME280;49654;51.142;14.924;2022-12-08T10:50:15;98405.97;;;4.64;75.09
63500;BME280;49654;51.142;14.924;2022-12-08T10:52:44;98373.13;;;4.49;74.30
63500;BME280;49654;51.142;14.924;2022-12-08T10:55:14;98405.91;;;4.90;73.96
63500;BME280;49654;51.142;14.924;2022-12-08T10:57:42;98413.59;;;4.82;73.49
63500;BME280;49654;51.142;14.924;2022-12-08T11:00:12;98385.41;;;4.64;73.57
63500;BME280;49654;51.142;14.924;2022-12-08T11:02:51;98400.13;;;5.04;73.57
63500;BME280;49654;51.142;14.924;2022-12-08T11:05:21;98394.72;;;5.48;73.39
63500;BME280;49654;51.142;14.924;2022-12-08T11:07:49;98396.81;;;5.69;71.02
63500;BME280;49654;51.142;14.924;2022-12-08T11:10:20;98346.44;;;4.93;70.86
63500;BME280;49654;51.142;14.924;2022-12-08T11:12:53;98365.81;;;4.63;71.44
63500;BME280;49654;51.142;14.924;2022-12-08T11:15:24;98370.84;;;4.81;71.51
63500;BME280;49654;51.142;14.924;2022-12-08T11:17:59;98377.47;;;4.99;70.97
63500;BME280;49654;51.142;14.924;2022-12-08T11:20:37;98363.38;;;5.44;71.67
63500;BME280;49654;51.142;14.924;2022-12-08T11:23:18;98374.59;;;5.60;69.94
63500;BME280;49654;51.142;14.924;2022-12-08T11:25:48;98362.88;;;5.57;68.15
63500;BME280;49654;51.142;14.924;2022-12-08T11:28:20;98293.00;;;5.52;67.79
63500;BME280;49654;51.142;14.924;2022-12-08T11:30:53;98375.97;;;6.27;66.70
63500;BME280;49654;51.142;14.924;2022-12-08T11:33:24;98338.84;;;5.81;68.58
63500;BME280;49654;51.142;14.924;2022-12-08T11:35:54;98359.78;;;5.94;67.88
63500;BME280;49654;51.142;14.924;2022-12-08T11:38:25;98308.31;;;5.45;68.74
63500;BME280;49654;51.142;14.924;2022-12-08T11:40:57;98360.91;;;5.75;69.13
63500;BME280;49654;51.142;14.924;2022-12-08T11:43:29;98360.94;;;5.92;70.49
63500;BME280;49654;51.142;14.924;2022-12-08T11:46:02;98347.88;;;5.77;69.27
63500;BME280;49654;51.142;14.924;2022-12-08T11:48:32;98351.72;;;5.73;69.34
63500;BME280;49654;51.142;14.924;2022-12-08T11:51:05;98347.25;;;5.50;69.61
63500;BME280;49654;51.142;14.924;2022-12-08T11:53:42;98355.94;;;5.58;69.54
63500;BME280;49654;51.142;14.924;2022-12-08T11:56:17;98353.22;;;5.43;70.13
63500;BME280;49654;51.142;14.924;2022-12-08T11:58:47;98317.31;;;5.17;69.99
63500;BME280;49654;51.142;14.924;2022-12-08T12:01:18;98349.03;;;5.50;70.49
63500;BME280;49654;51.142;14.924;2022-12-08T12:03:53;98243.81;;;4.73;70.75
63500;BME280;49654;51.142;14.924;2022-12-08T12:06:39;98326.97;;;5.39;70.44
63500;BME280;49654;51.142;14.924;2022-12-08T12:09:16;98325.38;;;5.46;69.92
63500;BME280;49654;51.142;14.924;2022-12-08T12:11:57;98345.97;;;5.46;70.45
63500;BME280;49654;51.142;14.924;2022-12-08T12:15:12;98351.91;;;5.47;69.84
63500;BME280;49654;51.142;14.924;2022-12-08T12:17:45;98344.19;;;5.47;70.18
63500;BME280;49654;51.142;14.924;2022-12-08T12:20:18;98245.75;;;4.80;70.11
63500;BME280;49654;51.142;14.924;2022-12-08T12:22:50;98346.28;;;5.68;69.85
63500;BME280;49654;51.142;14.924;2022-12-08T12:25:20;98348.06;;;5.59;69.49
63500;BME280;49654;51.142;14.924;2022-12-08T12:27:51;98342.59;;;5.54;69.49
63500;BME280;49654;51.142;14.924;2022-12-08T12:30:22;98342.22;;;5.73;69.72
63500;BME280;49654;51.142;14.924;2022-12-08T12:32:52;98346.88;;;5.78;68.49
63500;BME280;49654;51.142;14.924;2022-12-08T12:35:30;98341.28;;;5.66;68.89
63500;BME280;49654;51.142;14.924;2022-12-08T12:38:02;98331.78;;;5.83;69.07
63500;BME280;49654;51.142;14.924;2022-12-08T12:40:50;98333.88;;;5.96;67.85
63500;BME280;49654;51.142;14.924;2022-12-08T12:43:29;98329.03;;;6.71;65.76
63500;BME280;49654;51.142;14.924;2022-12-08T12:52:00;98272.09;;;8.73;56.89
63500;BME280;49654;51.142;14.924;2022-12-08T12:54:28;98313.59;;;8.80;55.58
63500;BME280;49654;51.142;14.924;2022-12-08T12:56:56;98316.88;;;9.10;55.65
63500;BME280;49654;51.142;14.924;2022-12-08T12:59:43;98239.53;;;8.79;54.54
63500;BME280;49654;51.142;14.924;2022-12-08T13:02:17;98302.88;;;8.83;54.92
63500;BME280;49654;51.142;14.924;2022-12-08T13:04:53;98306.75;;;8.72;56.65
63500;BME280;49654;51.142;14.924;2022-12-08T13:07:23;98303.25;;;8.29;57.73
63500;BME280;49654;51.142;14.924;2022-12-08T13:09:55;98300.53;;;9.10;55.73
63500;BME280;49654;51.142;14.924;2022-12-08T13:12:24;98267.16;;;9.84;52.38
63500;BME280;49654;51.142;14.924;2022-12-08T13:14:59;98287.47;;;10.57;50.52
63500;BME280;49654;51.142;14.924;2022-12-08T13:17:29;98294.31;;;10.71;50.30
63500;BME280;49654;51.142;14.924;2022-12-08T13:19:59;98304.25;;;10.54;50.76
63500;BME280;49654;51.142;14.924;2022-12-08T13:26:08;98286.16;;;9.91;51.89
63500;BME280;49654;51.142;14.924;2022-12-08T13:31:41;98291.47;;;10.59;48.80
63500;BME280;49654;51.142;14.924;2022-12-08T13:34:13;98296.66;;;8.26;54.83